sensor_id;sensor_type;location;lat;lon;timestamp;P1;durP1;ratioP1;P2;durP2;ratioP2
24419;SDS011;12599;52.426;13.330;2022-09-09T00:00:40;9.23;;;7.53;;
24419;SDS011;12599;52.426;13.330;2022-09-09T00:03:14;10.90;;;7.13;;
24419;SDS011;12599;52.426;13.330;2022-09-09T00:05:51;8.77;;;7.43;;
24419;SDS011;12599;52.426;13.330;2022-09-09T00:08:19;10.90;;;8.00;;
24419;SDS011;12599;52.426;13.330;2022-09-09T00:10:49;10.47;;;8.37;;
24419;SDS011;12599;52.426;13.330;2022-09-09T00:13:25;12.03;;;7.80;;
24419;SDS011;12599;52.426;13.330;2022-09-09T00:21:15;14.17;;;9.00;;
24419;SDS011;12599;52.426;13.330;2022-09-09T00:24:22;10.13;;;8.30;;
24419;SDS011;12599;52.426;13.330;2022-09-09T00:26:42;13.57;;;8.67;;
24419;SDS011;12599;52.426;13.330;2022-09-09T00:31:37;11.00;;;8.70;;
24419;SDS011;12599;52.426;13.330;2022-09-09T00:34:13;10.93;;;8.87;;
24419;SDS011;12599;52.426;13.330;2022-09-09T00:36:52;9.90;;;8.13;;
24419;SDS011;12599;52.426;13.330;2022-09-09T00:42:07;9.43;;;7.53;;
24419;SDS011;12599;52.426;13.330;2022-09-09T00:44:41;9.03;;;7.80;;
24419;SDS011;12599;52.426;13.330;2022-09-09T00:58:05;11.13;;;7.17;;
24419;SDS011;12599;52.426;13.330;2022-09-09T01:00:57;10.00;;;6.90;;
24419;SDS011;12599;52.426;13.330;2022-09-09T01:14:30;9.00;;;7.13;;
24419;SDS011;12599;52.426;13.330;2022-09-09T01:17:02;8.57;;;6.67;;
24419;SDS011;12599;52.426;13.330;2022-09-09T01:24:47;9.60;;;6.87;;
24419;SDS011;12599;52.426;13.330;2022-09-09T01:27:37;10.10;;;7.60;;
24419;SDS011;12599;52.426;13.330;2022-09-09T01:30:11;10.07;;;7.70;;
24419;SDS011;12599;52.426;13.330;2022-09-09T01:32:42;9.63;;;7.40;;
24419;SDS011;12599;52.426;13.330;2022-09-09T01:35:15;8.63;;;7.07;;
24419;SDS011;12599;52.426;13.330;2022-09-09T01:37:56;9.17;;;7.57;;
24419;SDS011;12599;52.426;13.330;2022-09-09T01:40:22;7.67;;;6.60;;
24419;SDS011;12599;52.426;13.330;2022-09-09T01:42:49;9.60;;;7.17;;
24419;SDS011;12599;52.426;13.330;2022-09-09T01:45:14;10.20;;;7.90;;
24419;SDS011;12599;52.426;13.330;2022-09-09T01:47:40;7.47;;;6.33;;
24419;SDS011;12599;52.426;13.330;2022-09-09T01:50:06;9.07;;;6.97;;
24419;SDS011;12599;52.426;13.330;2022-09-09T01:52:36;8.20;;;6.30;;
24419;SDS011;12599;52.426;13.330;2022-09-09T01:55:02;8.80;;;6.70;;
24419;SDS011;12599;52.426;13.330;2022-09-09T01:57:33;8.53;;;6.90;;
24419;SDS011;12599;52.426;13.330;2022-09-09T02:00:21;9.10;;;6.93;;
24419;SDS011;12599;52.426;13.330;2022-09-09T02:02:48;7.57;;;6.07;;
24419;SDS011;12599;52.426;13.330;2022-09-09T02:08:09;7.90;;;5.97;;
24419;SDS011;12599;52.426;13.330;2022-09-09T02:13:12;8.60;;;6.90;;
24419;SDS011;12599;52.426;13.330;2022-09-09T02:15:43;9.97;;;7.27;;
24419;SDS011;12599;52.426;13.330;2022-09-09T02:18:11;8.13;;;6.70;;
24419;SDS011;12599;52.426;13.330;2022-09-09T02:20:42;8.43;;;6.80;;
24419;SDS011;12599;52.426;13.330;2022-09-09T02:23:10;8.13;;;6.30;;
24419;SDS011;12599;52.426;13.330;2022-09-09T02:25:37;9.17;;;6.67;;
24419;SDS011;12599;52.426;13.330;2022-09-09T02:28:06;12.93;;;7.80;;
24419;SDS011;12599;52.426;13.330;2022-09-09T02:30:34;8.93;;;7.33;;
24419;SDS011;12599;52.426;13.330;2022-09-09T02:33:03;8.60;;;7.00;;
24419;SDS011;12599;52.426;13.330;2022-09-09T02:35:31;9.20;;;7.33;;
24419;SDS011;12599;52.426;13.330;2022-09-09T02:37:59;11.47;;;6.87;;
24419;SDS011;12599;52.426;13.330;2022-09-09T02:40:28;8.87;;;7.27;;
24419;SDS011;12599;52.426;13.330;2022-09-09T02:42:54;9.43;;;7.17;;
24419;SDS011;12599;52.426;13.330;2022-09-09T02:45:21;9.07;;;6.77;;
24419;SDS011;12599;52.426;13.330;2022-09-09T02:47:51;8.30;;;6.63;;
24419;SDS011;12599;52.426;13.330;2022-09-09T02:50:37;9.30;;;7.20;;
24419;SDS011;12599;52.426;13.330;2022-09-09T02:53:33;15.80;;;7.37;;
24419;SDS011;12599;52.426;13.330;2022-09-09T02:56:16;9.53;;;7.13;;
24419;SDS011;12599;52.426;13.330;2022-09-09T02:58:45;11.90;;;7.17;;
24419;SDS011;12599;52.426;13.330;2022-09-09T03:01:11;8.67;;;6.60;;
24419;SDS011;12599;52.426;13.330;2022-09-09T03:03:37;8.17;;;6.50;;
24419;SDS011;12599;52.426;13.330;2022-09-09T03:06:03;9.37;;;6.77;;
24419;SDS011;12599;52.426;13.330;2022-09-09T03:08:30;7.90;;;6.70;;
24419;SDS011;12599;52.426;13.330;2022-09-09T03:10:58;11.37;;;7.07;;
24419;SDS011;12599;52.426;13.330;2022-09-09T03:13:26;8.57;;;6.73;;
24419;SDS011;12599;52.426;13.330;2022-09-09T03:15:51;9.70;;;7.30;;
24419;SDS011;12599;52.426;13.330;2022-09-09T03:18:17;8.27;;;7.10;;
24419;SDS011;12599;52.426;13.330;2022-09-09T03:20:42;9.87;;;7.10;;
24419;SDS011;12599;52.426;13.330;2022-09-09T03:23:08;9.17;;;7.03;;
24419;SDS011;12599;52.426;13.330;2022-09-09T03:25:34;9.60;;;7.03;;
24419;SDS011;12599;52.426;13.330;2022-09-09T03:28:00;10.03;;;7.50;;
24419;SDS011;12599;52.426;13.330;2022-09-09T03:30:27;10.67;;;7.60;;
24419;SDS011;12599;52.426;13.330;2022-09-09T03:32:53;9.77;;;6.90;;
24419;SDS011;12599;52.426;13.330;2022-09-09T03:35:20;8.70;;;6.43;;
24419;SDS011;12599;52.426;13.330;2022-09-09T03:37:46;8.43;;;6.70;;
24419;SDS011;12599;52.426;13.330;2022-09-09T03:40:12;9.17;;;6.77;;
24419;SDS011;12599;52.426;13.330;2022-09-09T03:42:38;9.03;;;6.53;;
24419;SDS011;12599;52.426;13.330;2022-09-09T03:45:05;8.50;;;6.87;;
24419;SDS011;12599;52.426;13.330;2022-09-09T03:47:33;11.17;;;7.23;;
24419;SDS011;12599;52.426;13.330;2022-09-09T03:49:59;9.70;;;6.47;;
24419;SDS011;12599;52.426;13.330;2022-09-09T03:52:25;9.00;;;6.93;;
24419;SDS011;12599;52.426;13.330;2022-09-09T03:54:51;10.33;;;7.27;;
24419;SDS011;12599;52.426;13.330;2022-09-09T03:57:18;10.20;;;6.93;;
24419;SDS011;12599;52.426;13.330;2022-09-09T03:59:44;9.47;;;7.20;;
24419;SDS011;12599;52.426;13.330;2022-09-09T04:02:10;8.70;;;6.33;;
24419;SDS011;12599;52.426;13.330;2022-09-09T04:04:35;9.43;;;7.17;;
24419;SDS011;12599;52.426;13.330;2022-09-09T04:07:01;8.00;;;6.10;;
24419;SDS011;12599;52.426;13.330;2022-09-09T04:09:27;10.30;;;6.47;;
24419;SDS011;12599;52.426;13.330;2022-09-09T04:11:53;9.57;;;6.43;;
24419;SDS011;12599;52.426;13.330;2022-09-09T04:14:20;12.03;;;7.27;;
24419;SDS011;12599;52.426;13.330;2022-09-09T04:16:46;8.53;;;6.37;;
24419;SDS011;12599;52.426;13.330;2022-09-09T04:19:12;8.33;;;6.30;;
24419;SDS011;12599;52.426;13.330;2022-09-09T04:21:39;10.73;;;7.10;;
24419;SDS011;12599;52.426;13.330;2022-09-09T04:24:06;10.77;;;6.73;;
24419;SDS011;12599;52.426;13.330;2022-09-09T04:26:33;8.77;;;6.90;;
24419;SDS011;12599;52.426;13.330;2022-09-09T04:28:58;9.70;;;7.17;;
24419;SDS011;12599;52.426;13.330;2022-09-09T04:31:24;8.17;;;5.87;;
24419;SDS011;12599;52.426;13.330;2022-09-09T04:33:50;8.50;;;6.23;;
24419;SDS011;12599;52.426;13.330;2022-09-09T04:36:16;7.53;;;6.37;;
24419;SDS011;12599;52.426;13.330;2022-09-09T04:38:44;9.80;;;6.90;;
24419;SDS011;12599;52.426;13.330;2022-09-09T04:41:10;9.97;;;7.13;;
24419;SDS011;12599;52.426;13.330;2022-09-09T04:43:36;8.87;;;6.77;;
24419;SDS011;12599;52.426;13.330;2022-09-09T04:46:02;9.23;;;6.77;;
24419;SDS011;12599;52.426;13.330;2022-09-09T04:48:28;8.27;;;7.03;;
24419;SDS011;12599;52.426;13.330;2022-09-09T04:50:57;11.63;;;7.23;;
24419;SDS011;12599;52.426;13.330;2022-09-09T04:53:25;9.27;;;7.43;;
24419;SDS011;12599;52.426;13.330;2022-09-09T04:55:51;7.63;;;5.87;;
24419;SDS011;12599;52.426;13.330;2022-09-09T04:58:18;6.60;;;5.60;;
24419;SDS011;12599;52.426;13.330;2022-09-09T05:00:43;8.77;;;5.80;;
24419;SDS011;12599;52.426;13.330;2022-09-09T05:03:09;8.87;;;6.17;;
24419;SDS011;12599;52.426;13.330;2022-09-09T05:05:35;10.67;;;6.10;;
24419;SDS011;12599;52.426;13.330;2022-09-09T05:08:04;8.47;;;6.43;;
24419;SDS011;12599;52.426;13.330;2022-09-09T05:10:31;9.00;;;6.10;;
24419;SDS011;12599;52.426;13.330;2022-09-09T05:12:57;8.30;;;5.90;;
24419;SDS011;12599;52.426;13.330;2022-09-09T05:15:23;6.23;;;5.43;;
24419;SDS011;12599;52.426;13.330;2022-09-09T05:17:48;7.70;;;5.93;;
24419;SDS011;12599;52.426;13.330;2022-09-09T05:20:14;8.83;;;6.53;;
24419;SDS011;12599;52.426;13.330;2022-09-09T05:22:40;9.77;;;5.47;;
24419;SDS011;12599;52.426;13.330;2022-09-09T05:25:05;7.10;;;5.67;;
24419;SDS011;12599;52.426;13.330;2022-09-09T05:27:33;10.30;;;5.77;;
24419;SDS011;12599;52.426;13.330;2022-09-09T05:29:59;11.27;;;6.37;;
24419;SDS011;12599;52.426;13.330;2022-09-09T05:32:25;7.00;;;5.40;;
24419;SDS011;12599;52.426;13.330;2022-09-09T05:34:51;7.27;;;5.40;;
24419;SDS011;12599;52.426;13.330;2022-09-09T05:37:17;8.57;;;5.73;;
24419;SDS011;12599;52.426;13.330;2022-09-09T05:39:43;8.87;;;6.00;;
24419;SDS011;12599;52.426;13.330;2022-09-09T05:42:08;7.27;;;5.33;;
24419;SDS011;12599;52.426;13.330;2022-09-09T05:44:34;7.00;;;5.47;;
24419;SDS011;12599;52.426;13.330;2022-09-09T05:47:00;7.03;;;5.30;;
24419;SDS011;12599;52.426;13.330;2022-09-09T05:49:25;8.17;;;5.43;;
24419;SDS011;12599;52.426;13.330;2022-09-09T05:51:51;7.27;;;5.47;;
24419;SDS011;12599;52.426;13.330;2022-09-09T05:54:17;6.63;;;5.10;;
24419;SDS011;12599;52.426;13.330;2022-09-09T05:56:42;6.97;;;5.50;;
24419;SDS011;12599;52.426;13.330;2022-09-09T05:59:08;7.90;;;4.87;;
24419;SDS011;12599;52.426;13.330;2022-09-09T06:01:34;7.43;;;4.43;;
24419;SDS011;12599;52.426;13.330;2022-09-09T06:04:01;6.37;;;4.10;;
24419;SDS011;12599;52.426;13.330;2022-09-09T06:06:32;6.70;;;4.10;;
24419;SDS011;12599;52.426;13.330;2022-09-09T06:09:02;5.60;;;4.13;;
24419;SDS011;12599;52.426;13.330;2022-09-09T06:11:31;5.80;;;4.10;;
24419;SDS011;12599;52.426;13.330;2022-09-09T06:13:58;4.50;;;3.50;;
24419;SDS011;12599;52.426;13.330;2022-09-09T06:16:25;5.83;;;3.80;;
24419;SDS011;12599;52.426;13.330;2022-09-09T06:18:53;5.53;;;3.30;;
24419;SDS011;12599;52.426;13.330;2022-09-09T06:21:23;5.47;;;3.27;;
24419;SDS011;12599;52.426;13.330;2022-09-09T06:23:50;7.57;;;4.07;;
24419;SDS011;12599;52.426;13.330;2022-09-09T06:26:22;5.43;;;3.77;;
24419;SDS011;12599;52.426;13.330;2022-09-09T06:28:50;4.80;;;3.60;;
24419;SDS011;12599;52.426;13.330;2022-09-09T06:31:18;14.43;;;4.40;;
24419;SDS011;12599;52.426;13.330;2022-09-09T06:33:52;6.27;;;3.17;;
24419;SDS011;12599;52.426;13.330;2022-09-09T06:36:22;6.80;;;3.63;;
24419;SDS011;12599;52.426;13.330;2022-09-09T06:38:52;13.10;;;3.80;;
24419;SDS011;12599;52.426;13.330;2022-09-09T06:41:19;4.60;;;3.30;;
24419;SDS011;12599;52.426;13.330;2022-09-09T06:43:46;4.83;;;3.10;;
24419;SDS011;12599;52.426;13.330;2022-09-09T06:48:44;4.80;;;3.00;;
24419;SDS011;12599;52.426;13.330;2022-09-09T06:51:14;4.57;;;3.67;;
24419;SDS011;12599;52.426;13.330;2022-09-09T06:53:45;4.00;;;3.10;;
24419;SDS011;12599;52.426;13.330;2022-09-09T06:56:22;4.53;;;3.30;;
24419;SDS011;12599;52.426;13.330;2022-09-09T06:58:51;4.27;;;3.27;;
24419;SDS011;12599;52.426;13.330;2022-09-09T07:01:21;4.60;;;3.10;;
24419;SDS011;12599;52.426;13.330;2022-09-09T07:03:49;5.67;;;3.03;;
24419;SDS011;12599;52.426;13.330;2022-09-09T07:06:16;5.40;;;3.57;;
24419;SDS011;12599;52.426;13.330;2022-09-09T07:08:53;5.27;;;3.23;;
24419;SDS011;12599;52.426;13.330;2022-09-09T07:11:21;4.83;;;2.80;;
24419;SDS011;12599;52.426;13.330;2022-09-09T07:13:48;4.00;;;2.93;;
24419;SDS011;12599;52.426;13.330;2022-09-09T07:16:15;5.67;;;2.77;;
24419;SDS011;12599;52.426;13.330;2022-09-09T07:18:42;3.20;;;2.50;;
24419;SDS011;12599;52.426;13.330;2022-09-09T07:21:09;5.40;;;2.87;;
24419;SDS011;12599;52.426;13.330;2022-09-09T07:23:37;5.50;;;2.87;;
24419;SDS011;12599;52.426;13.330;2022-09-09T07:28:35;5.47;;;2.40;;
24419;SDS011;12599;52.426;13.330;2022-09-09T07:31:02;3.70;;;2.73;;
24419;SDS011;12599;52.426;13.330;2022-09-09T07:33:28;4.90;;;2.23;;
24419;SDS011;12599;52.426;13.330;2022-09-09T07:36:14;3.27;;;2.57;;
24419;SDS011;12599;52.426;13.330;2022-09-09T07:38:48;5.53;;;2.20;;
24419;SDS011;12599;52.426;13.330;2022-09-09T07:41:20;4.80;;;2.30;;
24419;SDS011;12599;52.426;13.330;2022-09-09T07:43:50;4.77;;;2.33;;
24419;SDS011;12599;52.426;13.330;2022-09-09T07:46:19;4.37;;;2.10;;
24419;SDS011;12599;52.426;13.330;2022-09-09T07:48:47;3.53;;;2.20;;
24419;SDS011;12599;52.426;13.330;2022-09-09T07:51:22;6.00;;;2.33;;
24419;SDS011;12599;52.426;13.330;2022-09-09T07:54:23;4.87;;;1.87;;
24419;SDS011;12599;52.426;13.330;2022-09-09T07:56:45;5.00;;;2.37;;
24419;SDS011;12599;52.426;13.330;2022-09-09T07:59:11;3.63;;;2.17;;
24419;SDS011;12599;52.426;13.330;2022-09-09T08:01:41;2.13;;;1.57;;
24419;SDS011;12599;52.426;13.330;2022-09-09T08:04:12;4.50;;;1.80;;
24419;SDS011;12599;52.426;13.330;2022-09-09T08:06:43;3.63;;;2.03;;
24419;SDS011;12599;52.426;13.330;2022-09-09T08:09:12;3.73;;;2.00;;
24419;SDS011;12599;52.426;13.330;2022-09-09T08:11:38;2.90;;;2.07;;
24419;SDS011;12599;52.426;13.330;2022-09-09T08:14:05;5.60;;;1.90;;
24419;SDS011;12599;52.426;13.330;2022-09-09T08:16:33;3.93;;;2.10;;
24419;SDS011;12599;52.426;13.330;2022-09-09T08:19:02;5.37;;;1.97;;
24419;SDS011;12599;52.426;13.330;2022-09-09T08:21:29;2.80;;;1.80;;
24419;SDS011;12599;52.426;13.330;2022-09-09T08:23:57;2.37;;;1.63;;
24419;SDS011;12599;52.426;13.330;2022-09-09T08:26:25;8.37;;;3.77;;
24419;SDS011;12599;52.426;13.330;2022-09-09T08:28:54;4.47;;;2.97;;
24419;SDS011;12599;52.426;13.330;2022-09-09T08:31:22;2.90;;;1.70;;
24419;SDS011;12599;52.426;13.330;2022-09-09T08:33:50;5.37;;;1.93;;
24419;SDS011;12599;52.426;13.330;2022-09-09T08:36:18;4.20;;;1.70;;
24419;SDS011;12599;52.426;13.330;2022-09-09T08:38:50;4.03;;;2.20;;
24419;SDS011;12599;52.426;13.330;2022-09-09T08:54:55;4.73;;;1.60;;
24419;SDS011;12599;52.426;13.330;2022-09-09T08:57:27;3.70;;;1.53;;
24419;SDS011;12599;52.426;13.330;2022-09-09T08:59:56;3.30;;;1.97;;
24419;SDS011;12599;52.426;13.330;2022-09-09T09:08:24;5.37;;;1.63;;
24419;SDS011;12599;52.426;13.330;2022-09-09T09:11:01;3.67;;;1.90;;
24419;SDS011;12599;52.426;13.330;2022-09-09T09:13:34;6.77;;;2.07;;
24419;SDS011;12599;52.426;13.330;2022-09-09T09:19:03;4.97;;;2.80;;
24419;SDS011;12599;52.426;13.330;2022-09-09T09:21:36;4.37;;;2.00;;
24419;SDS011;12599;52.426;13.330;2022-09-09T09:24:21;4.77;;;2.27;;
24419;SDS011;12599;52.426;13.330;2022-09-09T09:26:53;5.70;;;2.30;;
24419;SDS011;12599;52.426;13.330;2022-09-09T09:29:19;6.20;;;2.00;;
24419;SDS011;12599;52.426;13.330;2022-09-09T09:31:53;4.73;;;1.80;;
24419;SDS011;12599;52.426;13.330;2022-09-09T09:34:22;5.10;;;1.90;;
24419;SDS011;12599;52.426;13.330;2022-09-09T09:36:54;3.17;;;1.90;;
24419;SDS011;12599;52.426;13.330;2022-09-09T09:39:26;2.90;;;1.50;;
24419;SDS011;12599;52.426;13.330;2022-09-09T09:41:54;3.90;;;1.80;;
24419;SDS011;12599;52.426;13.330;2022-09-09T09:44:29;4.07;;;1.43;;
24419;SDS011;12599;52.426;13.330;2022-09-09T09:47:07;2.87;;;1.50;;
24419;SDS011;12599;52.426;13.330;2022-09-09T09:49:35;3.63;;;1.40;;
24419;SDS011;12599;52.426;13.330;2022-09-09T09:52:05;4.50;;;1.50;;
24419;SDS011;12599;52.426;13.330;2022-09-09T09:54:38;4.57;;;1.60;;
24419;SDS011;12599;52.426;13.330;2022-09-09T09:59:36;5.07;;;1.63;;
24419;SDS011;12599;52.426;13.330;2022-09-09T10:04:40;3.50;;;1.37;;
24419;SDS011;12599;52.426;13.330;2022-09-09T10:07:39;4.80;;;1.50;;
24419;SDS011;12599;52.426;13.330;2022-09-09T10:09:59;4.30;;;1.50;;
24419;SDS011;12599;52.426;13.330;2022-09-09T10:15:07;4.93;;;1.67;;
24419;SDS011;12599;52.426;13.330;2022-09-09T10:28:29;2.30;;;1.30;;
24419;SDS011;12599;52.426;13.330;2022-09-09T10:36:46;5.40;;;1.70;;
24419;SDS011;12599;52.426;13.330;2022-09-09T10:42:06;3.33;;;1.47;;
24419;SDS011;12599;52.426;13.330;2022-09-09T10:56:04;3.60;;;1.40;;
24419;SDS011;12599;52.426;13.330;2022-09-09T10:58:38;6.27;;;1.50;;
24419;SDS011;12599;52.426;13.330;2022-09-09T11:01:30;4.23;;;1.60;;
24419;SDS011;12599;52.426;13.330;2022-09-09T11:04:17;3.33;;;1.60;;
24419;SDS011;12599;52.426;13.330;2022-09-09T11:06:48;9.27;;;1.73;;
24419;SDS011;12599;52.426;13.330;2022-09-09T11:09:18;4.00;;;1.20;;
24419;SDS011;12599;52.426;13.330;2022-09-09T11:11:53;3.33;;;1.50;;
24419;SDS011;12599;52.426;13.330;2022-09-09T11:14:40;7.17;;;1.43;;
24419;SDS011;12599;52.426;13.330;2022-09-09T11:17:20;2.87;;;1.40;;
24419;SDS011;12599;52.426;13.330;2022-09-09T11:19:49;2.73;;;1.30;;
24419;SDS011;12599;52.426;13.330;2022-09-09T11:35:47;1.63;;;1.10;;
24419;SDS011;12599;52.426;13.330;2022-09-09T11:41:01;2.77;;;1.13;;
24419;SDS011;12599;52.426;13.330;2022-09-09T11:43:32;2.87;;;1.53;;
24419;SDS011;12599;52.426;13.330;2022-09-09T11:46:05;2.90;;;1.37;;
24419;SDS011;12599;52.426;13.330;2022-09-09T11:53:33;3.60;;;1.60;;
24419;SDS011;12599;52.426;13.330;2022-09-09T11:56:01;2.40;;;1.17;;
24419;SDS011;12599;52.426;13.330;2022-09-09T11:58:28;2.63;;;1.27;;
24419;SDS011;12599;52.426;13.330;2022-09-09T12:01:01;2.00;;;0.90;;
24419;SDS011;12599;52.426;13.330;2022-09-09T12:19:41;3.70;;;1.10;;
24419;SDS011;12599;52.426;13.330;2022-09-09T12:24:50;2.10;;;1.00;;
24419;SDS011;12599;52.426;13.330;2022-09-09T12:27:26;1.77;;;0.90;;
24419;SDS011;12599;52.426;13.330;2022-09-09T12:30:07;5.73;;;1.23;;
24419;SDS011;12599;52.426;13.330;2022-09-09T12:32:40;1.53;;;0.60;;
24419;SDS011;12599;52.426;13.330;2022-09-09T12:35:12;1.80;;;0.70;;
24419;SDS011;12599;52.426;13.330;2022-09-09T12:37:46;5.67;;;1.30;;
24419;SDS011;12599;52.426;13.330;2022-09-09T12:40:25;2.00;;;0.93;;
24419;SDS011;12599;52.426;13.330;2022-09-09T12:42:52;1.13;;;1.00;;
24419;SDS011;12599;52.426;13.330;2022-09-09T12:45:23;5.23;;;1.27;;
24419;SDS011;12599;52.426;13.330;2022-09-09T12:48:02;3.50;;;1.03;;
24419;SDS011;12599;52.426;13.330;2022-09-09T12:50:32;2.37;;;1.03;;
24419;SDS011;12599;52.426;13.330;2022-09-09T12:53:04;3.43;;;0.90;;
24419;SDS011;12599;52.426;13.330;2022-09-09T12:55:35;4.50;;;1.10;;
24419;SDS011;12599;52.426;13.330;2022-09-09T12:58:03;2.77;;;1.07;;
24419;SDS011;12599;52.426;13.330;2022-09-09T13:00:31;2.00;;;1.13;;
24419;SDS011;12599;52.426;13.330;2022-09-09T13:02:58;0.80;;;0.73;;
24419;SDS011;12599;52.426;13.330;2022-09-09T13:05:44;4.57;;;1.50;;
24419;SDS011;12599;52.426;13.330;2022-09-09T13:08:12;3.23;;;1.30;;
24419;SDS011;12599;52.426;13.330;2022-09-09T13:13:16;3.20;;;1.23;;
24419;SDS011;12599;52.426;13.330;2022-09-09T13:15:58;3.43;;;1.33;;
24419;SDS011;12599;52.426;13.330;2022-09-09T13:18:28;4.67;;;1.20;;
24419;SDS011;12599;52.426;13.330;2022-09-09T13:20:56;2.17;;;0.90;;
24419;SDS011;12599;52.426;13.330;2022-09-09T13:23:23;2.57;;;0.73;;
24419;SDS011;12599;52.426;13.330;2022-09-09T13:25:57;4.20;;;1.30;;
24419;SDS011;12599;52.426;13.330;2022-09-09T13:28:25;4.27;;;1.67;;
24419;SDS011;12599;52.426;13.330;2022-09-09T13:33:35;4.50;;;1.30;;
24419;SDS011;12599;52.426;13.330;2022-09-09T13:36:03;5.67;;;1.00;;
24419;SDS011;12599;52.426;13.330;2022-09-09T13:38:31;2.13;;;1.20;;
24419;SDS011;12599;52.426;13.330;2022-09-09T13:41:01;2.80;;;1.00;;
24419;SDS011;12599;52.426;13.330;2022-09-09T13:43:42;3.27;;;1.00;;
24419;SDS011;12599;52.426;13.330;2022-09-09T13:51:44;3.00;;;1.27;;
24419;SDS011;12599;52.426;13.330;2022-09-09T13:54:12;3.53;;;1.00;;
24419;SDS011;12599;52.426;13.330;2022-09-09T13:56:40;5.30;;;1.20;;
24419;SDS011;12599;52.426;13.330;2022-09-09T13:59:11;2.13;;;1.20;;
24419;SDS011;12599;52.426;13.330;2022-09-09T14:01:41;2.77;;;1.17;;
24419;SDS011;12599;52.426;13.330;2022-09-09T14:04:07;2.83;;;1.23;;
24419;SDS011;12599;52.426;13.330;2022-09-09T14:06:36;3.33;;;1.13;;
24419;SDS011;12599;52.426;13.330;2022-09-09T14:09:08;4.00;;;1.30;;
24419;SDS011;12599;52.426;13.330;2022-09-09T14:11:36;2.47;;;0.93;;
24419;SDS011;12599;52.426;13.330;2022-09-09T14:14:02;2.37;;;1.23;;
24419;SDS011;12599;52.426;13.330;2022-09-09T14:16:28;3.60;;;1.30;;
24419;SDS011;12599;52.426;13.330;2022-09-09T14:18:54;3.47;;;1.17;;
24419;SDS011;12599;52.426;13.330;2022-09-09T14:21:24;4.70;;;1.33;;
24419;SDS011;12599;52.426;13.330;2022-09-09T14:23:50;3.00;;;1.27;;
24419;SDS011;12599;52.426;13.330;2022-09-09T14:26:17;5.93;;;1.47;;
24419;SDS011;12599;52.426;13.330;2022-09-09T14:28:45;3.73;;;1.40;;
24419;SDS011;12599;52.426;13.330;2022-09-09T14:31:12;3.13;;;1.20;;
24419;SDS011;12599;52.426;13.330;2022-09-09T14:33:38;4.30;;;1.43;;
24419;SDS011;12599;52.426;13.330;2022-09-09T14:36:04;7.33;;;1.60;;
24419;SDS011;12599;52.426;13.330;2022-09-09T14:38:33;3.37;;;1.37;;
24419;SDS011;12599;52.426;13.330;2022-09-09T14:41:11;4.00;;;1.53;;
24419;SDS011;12599;52.426;13.330;2022-09-09T14:43:38;3.37;;;1.40;;
24419;SDS011;12599;52.426;13.330;2022-09-09T14:46:05;5.83;;;1.63;;
24419;SDS011;12599;52.426;13.330;2022-09-09T14:48:31;1.50;;;1.10;;
24419;SDS011;12599;52.426;13.330;2022-09-09T14:51:03;1.90;;;1.10;;
24419;SDS011;12599;52.426;13.330;2022-09-09T14:53:30;2.40;;;0.90;;
24419;SDS011;12599;52.426;13.330;2022-09-09T14:56:02;1.97;;;0.90;;
24419;SDS011;12599;52.426;13.330;2022-09-09T14:58:32;2.20;;;0.80;;
24419;SDS011;12599;52.426;13.330;2022-09-09T15:01:14;3.23;;;0.80;;
24419;SDS011;12599;52.426;13.330;2022-09-09T15:03:51;0.77;;;0.50;;
24419;SDS011;12599;52.426;13.330;2022-09-09T15:06:26;4.77;;;0.80;;
24419;SDS011;12599;52.426;13.330;2022-09-09T15:08:55;2.30;;;0.70;;
24419;SDS011;12599;52.426;13.330;2022-09-09T15:11:25;1.77;;;0.83;;
24419;SDS011;12599;52.426;13.330;2022-09-09T15:13:52;3.23;;;1.13;;
24419;SDS011;12599;52.426;13.330;2022-09-09T15:16:19;3.33;;;0.87;;
24419;SDS011;12599;52.426;13.330;2022-09-09T15:18:49;1.07;;;0.80;;
24419;SDS011;12599;52.426;13.330;2022-09-09T15:21:20;2.17;;;1.00;;
24419;SDS011;12599;52.426;13.330;2022-09-09T15:23:46;1.83;;;0.97;;
24419;SDS011;12599;52.426;13.330;2022-09-09T15:26:13;2.33;;;1.30;;
24419;SDS011;12599;52.426;13.330;2022-09-09T15:28:40;3.67;;;1.03;;
24419;SDS011;12599;52.426;13.330;2022-09-09T15:31:12;3.33;;;1.10;;
24419;SDS011;12599;52.426;13.330;2022-09-09T15:33:39;3.53;;;1.23;;
24419;SDS011;12599;52.426;13.330;2022-09-09T15:36:22;3.27;;;1.30;;
24419;SDS011;12599;52.426;13.330;2022-09-09T15:38:49;4.83;;;1.30;;
24419;SDS011;12599;52.426;13.330;2022-09-09T15:41:16;4.10;;;1.10;;
24419;SDS011;12599;52.426;13.330;2022-09-09T15:43:43;3.87;;;1.17;;
24419;SDS011;12599;52.426;13.330;2022-09-09T15:48:42;3.80;;;1.27;;
24419;SDS011;12599;52.426;13.330;2022-09-09T15:51:09;2.63;;;1.20;;
24419;SDS011;12599;52.426;13.330;2022-09-09T15:53:36;4.27;;;1.77;;
24419;SDS011;12599;52.426;13.330;2022-09-09T15:56:04;3.03;;;1.37;;
24419;SDS011;12599;52.426;13.330;2022-09-09T15:58:33;1.87;;;1.07;;
24419;SDS011;12599;52.426;13.330;2022-09-09T16:01:01;4.40;;;1.27;;
24419;SDS011;12599;52.426;13.330;2022-09-09T16:03:29;4.73;;;1.60;;
24419;SDS011;12599;52.426;13.330;2022-09-09T16:05:58;2.80;;;1.17;;
24419;SDS011;12599;52.426;13.330;2022-09-09T16:08:24;3.17;;;1.47;;
24419;SDS011;12599;52.426;13.330;2022-09-09T16:10:55;3.60;;;1.43;;
24419;SDS011;12599;52.426;13.330;2022-09-09T16:13:21;2.27;;;1.20;;
24419;SDS011;12599;52.426;13.330;2022-09-09T16:15:53;5.37;;;1.37;;
24419;SDS011;12599;52.426;13.330;2022-09-09T16:18:19;3.97;;;1.27;;
24419;SDS011;12599;52.426;13.330;2022-09-09T16:20:52;2.73;;;1.13;;
24419;SDS011;12599;52.426;13.330;2022-09-09T16:23:19;2.70;;;1.50;;
24419;SDS011;12599;52.426;13.330;2022-09-09T16:25:52;2.33;;;1.37;;
24419;SDS011;12599;52.426;13.330;2022-09-09T16:28:21;2.40;;;1.40;;
24419;SDS011;12599;52.426;13.330;2022-09-09T16:30:47;3.57;;;1.63;;
24419;SDS011;12599;52.426;13.330;2022-09-09T16:33:13;3.60;;;2.00;;
24419;SDS011;12599;52.426;13.330;2022-09-09T16:35:41;5.30;;;1.70;;
24419;SDS011;12599;52.426;13.330;2022-09-09T16:38:07;4.27;;;2.30;;
24419;SDS011;12599;52.426;13.330;2022-09-09T16:40:34;4.63;;;1.90;;
24419;SDS011;12599;52.426;13.330;2022-09-09T16:43:01;3.63;;;1.87;;
24419;SDS011;12599;52.426;13.330;2022-09-09T16:45:27;4.83;;;2.37;;
24419;SDS011;12599;52.426;13.330;2022-09-09T16:47:54;5.00;;;2.70;;
24419;SDS011;12599;52.426;13.330;2022-09-09T16:50:19;6.43;;;3.00;;
24419;SDS011;12599;52.426;13.330;2022-09-09T16:52:45;5.17;;;2.47;;
24419;SDS011;12599;52.426;13.330;2022-09-09T16:55:10;6.20;;;2.80;;
24419;SDS011;12599;52.426;13.330;2022-09-09T16:57:36;4.87;;;2.53;;
24419;SDS011;12599;52.426;13.330;2022-09-09T17:00:03;4.13;;;2.20;;
24419;SDS011;12599;52.426;13.330;2022-09-09T17:02:30;4.17;;;2.10;;
24419;SDS011;12599;52.426;13.330;2022-09-09T17:04:56;7.10;;;2.20;;
24419;SDS011;12599;52.426;13.330;2022-09-09T17:07:22;8.20;;;2.43;;
24419;SDS011;12599;52.426;13.330;2022-09-09T17:09:47;2.00;;;1.17;;
24419;SDS011;12599;52.426;13.330;2022-09-09T17:12:13;3.40;;;1.43;;
24419;SDS011;12599;52.426;13.330;2022-09-09T17:14:41;3.27;;;1.50;;
24419;SDS011;12599;52.426;13.330;2022-09-09T17:17:07;3.60;;;1.53;;
24419;SDS011;12599;52.426;13.330;2022-09-09T17:19:33;2.33;;;1.73;;
24419;SDS011;12599;52.426;13.330;2022-09-09T17:21:58;3.77;;;1.33;;
24419;SDS011;12599;52.426;13.330;2022-09-09T17:24:25;3.00;;;1.60;;
24419;SDS011;12599;52.426;13.330;2022-09-09T17:26:51;3.40;;;1.40;;
24419;SDS011;12599;52.426;13.330;2022-09-09T17:29:17;10.17;;;4.00;;